sensor_id;sensor_type;location;lat;lon;timestamp;P1;durP1;ratioP1;P2;durP2;ratioP2
78183;SDS011;67442;44.570;18.610;2023-03-31T00:01:08;24.67;;;12.63;;
78183;SDS011;67442;44.570;18.610;2023-03-31T00:03:35;22.80;;;12.70;;
78183;SDS011;67442;44.570;18.610;2023-03-31T00:06:08;23.75;;;13.13;;
78183;SDS011;67442;44.570;18.610;2023-03-31T00:08:36;22.17;;;12.75;;
78183;SDS011;67442;44.570;18.610;2023-03-31T00:11:05;20.67;;;11.65;;
78183;SDS011;67442;44.570;18.610;2023-03-31T00:13:33;23.08;;;12.60;;
78183;SDS011;67442;44.570;18.610;2023-03-31T00:16:03;24.00;;;12.35;;
78183;SDS011;67442;44.570;18.610;2023-03-31T00:18:32;23.40;;;12.07;;
78183;SDS011;67442;44.570;18.610;2023-03-31T00:21:32;21.77;;;12.02;;
78183;SDS011;67442;44.570;18.610;2023-03-31T00:23:59;23.10;;;12.15;;
78183;SDS011;67442;44.570;18.610;2023-03-31T00:26:27;19.50;;;11.38;;
78183;SDS011;67442;44.570;18.610;2023-03-31T00:28:55;24.10;;;12.32;;
78183;SDS011;67442;44.570;18.610;2023-03-31T00:31:23;21.33;;;11.68;;
78183;SDS011;67442;44.570;18.610;2023-03-31T00:33:52;23.17;;;12.32;;
78183;SDS011;67442;44.570;18.610;2023-03-31T00:36:19;20.42;;;11.05;;
78183;SDS011;67442;44.570;18.610;2023-03-31T00:38:46;20.88;;;11.65;;
78183;SDS011;67442;44.570;18.610;2023-03-31T00:41:14;21.58;;;11.30;;
78183;SDS011;67442;44.570;18.610;2023-03-31T00:43:59;23.75;;;11.60;;
78183;SDS011;67442;44.570;18.610;2023-03-31T00:46:26;19.98;;;11.25;;
78183;SDS011;67442;44.570;18.610;2023-03-31T00:48:58;17.85;;;10.68;;
78183;SDS011;67442;44.570;18.610;2023-03-31T00:51:26;20.33;;;10.85;;
78183;SDS011;67442;44.570;18.610;2023-03-31T00:53:57;21.08;;;10.80;;
78183;SDS011;67442;44.570;18.610;2023-03-31T00:56:31;20.83;;;11.90;;
78183;SDS011;67442;44.570;18.610;2023-03-31T00:59:08;19.00;;;10.73;;
78183;SDS011;67442;44.570;18.610;2023-03-31T01:01:37;21.40;;;11.93;;
78183;SDS011;67442;44.570;18.610;2023-03-31T01:04:07;21.33;;;11.60;;
78183;SDS011;67442;44.570;18.610;2023-03-31T01:06:37;18.55;;;10.27;;
78183;SDS011;67442;44.570;18.610;2023-03-31T01:09:11;20.25;;;11.23;;
78183;SDS011;67442;44.570;18.610;2023-03-31T01:11:44;18.15;;;10.38;;
78183;SDS011;67442;44.570;18.610;2023-03-31T01:14:13;19.67;;;10.77;;
78183;SDS011;67442;44.570;18.610;2023-03-31T01:16:40;19.90;;;10.40;;
78183;SDS011;67442;44.570;18.610;2023-03-31T01:19:24;20.15;;;10.80;;
78183;SDS011;67442;44.570;18.610;2023-03-31T01:22:25;17.45;;;10.32;;
78183;SDS011;67442;44.570;18.610;2023-03-31T01:39:12;17.35;;;9.73;;
78183;SDS011;67442;44.570;18.610;2023-03-31T01:42:03;17.83;;;9.25;;
78183;SDS011;67442;44.570;18.610;2023-03-31T01:58:17;18.77;;;9.30;;
78183;SDS011;67442;44.570;18.610;2023-03-31T02:00:57;16.23;;;9.30;;
78183;SDS011;67442;44.570;18.610;2023-03-31T02:03:45;21.48;;;10.23;;
78183;SDS011;67442;44.570;18.610;2023-03-31T02:06:21;16.20;;;9.10;;
78183;SDS011;67442;44.570;18.610;2023-03-31T02:08:56;16.00;;;9.07;;
78183;SDS011;67442;44.570;18.610;2023-03-31T02:11:41;16.73;;;9.07;;
78183;SDS011;67442;44.570;18.610;2023-03-31T02:14:10;18.40;;;9.10;;
78183;SDS011;67442;44.570;18.610;2023-03-31T02:16:43;16.30;;;8.73;;
78183;SDS011;67442;44.570;18.610;2023-03-31T02:19:17;14.55;;;8.55;;
78183;SDS011;67442;44.570;18.610;2023-03-31T02:21:50;17.35;;;9.32;;
78183;SDS011;67442;44.570;18.610;2023-03-31T02:24:20;16.45;;;8.65;;
78183;SDS011;67442;44.570;18.610;2023-03-31T02:26:56;15.13;;;8.63;;
78183;SDS011;67442;44.570;18.610;2023-03-31T02:29:26;16.52;;;8.68;;
78183;SDS011;67442;44.570;18.610;2023-03-31T02:34:28;16.85;;;8.82;;
78183;SDS011;67442;44.570;18.610;2023-03-31T02:36:59;15.57;;;8.65;;
78183;SDS011;67442;44.570;18.610;2023-03-31T02:39:33;16.40;;;9.10;;
78183;SDS011;67442;44.570;18.610;2023-03-31T02:42:01;15.35;;;8.20;;
78183;SDS011;67442;44.570;18.610;2023-03-31T02:44:35;18.52;;;9.20;;
78183;SDS011;67442;44.570;18.610;2023-03-31T02:47:22;17.33;;;8.90;;
78183;SDS011;67442;44.570;18.610;2023-03-31T02:49:51;14.55;;;8.45;;
78183;SDS011;67442;44.570;18.610;2023-03-31T02:55:22;15.18;;;8.63;;
78183;SDS011;67442;44.570;18.610;2023-03-31T03:14:39;15.63;;;8.25;;
78183;SDS011;67442;44.570;18.610;2023-03-31T03:19:53;14.57;;;8.32;;
78183;SDS011;67442;44.570;18.610;2023-03-31T03:22:23;14.43;;;8.40;;
78183;SDS011;67442;44.570;18.610;2023-03-31T03:24:50;17.08;;;9.07;;
78183;SDS011;67442;44.570;18.610;2023-03-31T03:27:18;14.73;;;8.50;;
78183;SDS011;67442;44.570;18.610;2023-03-31T03:29:47;15.48;;;8.93;;
78183;SDS011;67442;44.570;18.610;2023-03-31T03:32:14;15.88;;;8.25;;
78183;SDS011;67442;44.570;18.610;2023-03-31T03:34:46;15.80;;;8.85;;
78183;SDS011;67442;44.570;18.610;2023-03-31T03:37:13;13.77;;;8.23;;
78183;SDS011;67442;44.570;18.610;2023-03-31T03:39:40;15.60;;;8.40;;
78183;SDS011;67442;44.570;18.610;2023-03-31T03:42:08;15.63;;;9.35;;
78183;SDS011;67442;44.570;18.610;2023-03-31T03:44:35;14.50;;;8.32;;
78183;SDS011;67442;44.570;18.610;2023-03-31T03:47:02;16.95;;;8.90;;
78183;SDS011;67442;44.570;18.610;2023-03-31T03:49:31;16.42;;;8.60;;
78183;SDS011;67442;44.570;18.610;2023-03-31T03:52:01;15.93;;;9.05;;
78183;SDS011;67442;44.570;18.610;2023-03-31T03:54:29;18.20;;;9.00;;
78183;SDS011;67442;44.570;18.610;2023-03-31T03:56:56;16.63;;;9.30;;
78183;SDS011;67442;44.570;18.610;2023-03-31T03:59:23;15.85;;;8.55;;
78183;SDS011;67442;44.570;18.610;2023-03-31T04:01:54;14.90;;;8.55;;
78183;SDS011;67442;44.570;18.610;2023-03-31T04:04:21;16.10;;;8.35;;
78183;SDS011;67442;44.570;18.610;2023-03-31T04:06:49;16.80;;;8.35;;
78183;SDS011;67442;44.570;18.610;2023-03-31T04:09:20;16.13;;;9.07;;
78183;SDS011;67442;44.570;18.610;2023-03-31T04:11:47;14.25;;;7.68;;
78183;SDS011;67442;44.570;18.610;2023-03-31T04:14:15;15.40;;;8.85;;
78183;SDS011;67442;44.570;18.610;2023-03-31T04:16:42;14.38;;;8.25;;
78183;SDS011;67442;44.570;18.610;2023-03-31T04:19:13;13.77;;;7.95;;
78183;SDS011;67442;44.570;18.610;2023-03-31T04:21:42;14.35;;;8.43;;
78183;SDS011;67442;44.570;18.610;2023-03-31T04:24:15;14.25;;;7.70;;
78183;SDS011;67442;44.570;18.610;2023-03-31T04:26:46;13.63;;;8.20;;
78183;SDS011;67442;44.570;18.610;2023-03-31T04:29:15;15.30;;;8.13;;
78183;SDS011;67442;44.570;18.610;2023-03-31T04:31:42;16.40;;;8.80;;
78183;SDS011;67442;44.570;18.610;2023-03-31T04:34:10;15.10;;;9.00;;
78183;SDS011;67442;44.570;18.610;2023-03-31T04:36:39;20.08;;;9.38;;
78183;SDS011;67442;44.570;18.610;2023-03-31T04:39:20;17.77;;;8.50;;
78183;SDS011;67442;44.570;18.610;2023-03-31T04:41:58;23.05;;;9.60;;
78183;SDS011;67442;44.570;18.610;2023-03-31T04:44:25;21.70;;;10.20;;
78183;SDS011;67442;44.570;18.610;2023-03-31T04:46:52;23.63;;;9.98;;
78183;SDS011;67442;44.570;18.610;2023-03-31T04:49:20;26.65;;;11.80;;
78183;SDS011;67442;44.570;18.610;2023-03-31T04:51:47;34.38;;;13.57;;
78183;SDS011;67442;44.570;18.610;2023-03-31T04:54:15;42.03;;;14.90;;
78183;SDS011;67442;44.570;18.610;2023-03-31T04:56:41;41.88;;;15.57;;
78183;SDS011;67442;44.570;18.610;2023-03-31T04:59:08;47.92;;;17.48;;
78183;SDS011;67442;44.570;18.610;2023-03-31T05:01:35;55.08;;;17.27;;
78183;SDS011;67442;44.570;18.610;2023-03-31T05:04:03;50.72;;;17.83;;
78183;SDS011;67442;44.570;18.610;2023-03-31T05:06:31;46.40;;;17.10;;
78183;SDS011;67442;44.570;18.610;2023-03-31T05:08:59;51.47;;;17.17;;
78183;SDS011;67442;44.570;18.610;2023-03-31T05:11:26;49.88;;;16.45;;
78183;SDS011;67442;44.570;18.610;2023-03-31T05:13:53;50.28;;;17.05;;
78183;SDS011;67442;44.570;18.610;2023-03-31T05:16:20;47.45;;;16.45;;
78183;SDS011;67442;44.570;18.610;2023-03-31T05:18:47;50.10;;;17.73;;
78183;SDS011;67442;44.570;18.610;2023-03-31T05:21:18;44.05;;;17.20;;
78183;SDS011;67442;44.570;18.610;2023-03-31T05:23:46;38.15;;;15.25;;
78183;SDS011;67442;44.570;18.610;2023-03-31T05:26:14;40.70;;;14.80;;
78183;SDS011;67442;44.570;18.610;2023-03-31T05:28:44;46.75;;;16.90;;
78183;SDS011;67442;44.570;18.610;2023-03-31T05:31:11;39.92;;;15.43;;
78183;SDS011;67442;44.570;18.610;2023-03-31T05:33:39;43.30;;;16.15;;
78183;SDS011;67442;44.570;18.610;2023-03-31T05:36:07;45.72;;;16.17;;
78183;SDS011;67442;44.570;18.610;2023-03-31T05:38:35;38.92;;;14.55;;
78183;SDS011;67442;44.570;18.610;2023-03-31T05:41:02;35.38;;;14.80;;
78183;SDS011;67442;44.570;18.610;2023-03-31T05:43:35;39.35;;;14.55;;
78183;SDS011;67442;44.570;18.610;2023-03-31T05:46:03;37.10;;;14.38;;
78183;SDS011;67442;44.570;18.610;2023-03-31T05:48:31;39.70;;;14.35;;
78183;SDS011;67442;44.570;18.610;2023-03-31T05:50:58;36.58;;;14.60;;
78183;SDS011;67442;44.570;18.610;2023-03-31T05:53:25;33.70;;;13.77;;
78183;SDS011;67442;44.570;18.610;2023-03-31T05:55:55;36.50;;;14.25;;
78183;SDS011;67442;44.570;18.610;2023-03-31T05:58:26;38.63;;;13.80;;
78183;SDS011;67442;44.570;18.610;2023-03-31T06:01:04;33.65;;;13.93;;
78183;SDS011;67442;44.570;18.610;2023-03-31T06:03:34;32.22;;;12.60;;
78183;SDS011;67442;44.570;18.610;2023-03-31T06:06:02;31.13;;;13.27;;
78183;SDS011;67442;44.570;18.610;2023-03-31T06:08:31;35.92;;;13.52;;
78183;SDS011;67442;44.570;18.610;2023-03-31T06:10:58;30.70;;;13.73;;
78183;SDS011;67442;44.570;18.610;2023-03-31T06:13:28;32.28;;;13.05;;
78183;SDS011;67442;44.570;18.610;2023-03-31T06:15:56;37.33;;;13.27;;
78183;SDS011;67442;44.570;18.610;2023-03-31T06:18:26;38.20;;;14.43;;
78183;SDS011;67442;44.570;18.610;2023-03-31T06:20:54;33.95;;;13.65;;
78183;SDS011;67442;44.570;18.610;2023-03-31T06:23:21;27.35;;;12.85;;
78183;SDS011;67442;44.570;18.610;2023-03-31T06:25:48;30.05;;;12.98;;
78183;SDS011;67442;44.570;18.610;2023-03-31T06:28:14;28.80;;;12.52;;
78183;SDS011;67442;44.570;18.610;2023-03-31T06:30:42;27.27;;;12.02;;
78183;SDS011;67442;44.570;18.610;2023-03-31T06:33:09;30.65;;;12.30;;
78183;SDS011;67442;44.570;18.610;2023-03-31T06:35:39;28.38;;;12.57;;
78183;SDS011;67442;44.570;18.610;2023-03-31T06:38:06;29.85;;;12.90;;
78183;SDS011;67442;44.570;18.610;2023-03-31T06:40:37;33.55;;;13.20;;
78183;SDS011;67442;44.570;18.610;2023-03-31T06:43:05;30.17;;;12.80;;
78183;SDS011;67442;44.570;18.610;2023-03-31T06:45:32;27.67;;;12.15;;
78183;SDS011;67442;44.570;18.610;2023-03-31T06:48:01;31.77;;;13.02;;
78183;SDS011;67442;44.570;18.610;2023-03-31T06:50:28;29.15;;;12.23;;
78183;SDS011;67442;44.570;18.610;2023-03-31T06:52:59;26.08;;;11.73;;
78183;SDS011;67442;44.570;18.610;2023-03-31T06:55:30;28.73;;;12.93;;
78183;SDS011;67442;44.570;18.610;2023-03-31T06:58:02;25.02;;;11.48;;
78183;SDS011;67442;44.570;18.610;2023-03-31T07:00:29;25.92;;;12.20;;
78183;SDS011;67442;44.570;18.610;2023-03-31T07:03:00;27.00;;;12.25;;
78183;SDS011;67442;44.570;18.610;2023-03-31T07:05:28;25.75;;;11.88;;
78183;SDS011;67442;44.570;18.610;2023-03-31T07:07:59;28.42;;;11.82;;
78183;SDS011;67442;44.570;18.610;2023-03-31T07:10:28;28.58;;;12.35;;
78183;SDS011;67442;44.570;18.610;2023-03-31T07:12:59;30.17;;;12.38;;
78183;SDS011;67442;44.570;18.610;2023-03-31T07:15:26;24.13;;;10.43;;
78183;SDS011;67442;44.570;18.610;2023-03-31T07:17:55;27.50;;;12.25;;
78183;SDS011;67442;44.570;18.610;2023-03-31T07:20:29;28.73;;;11.43;;
78183;SDS011;67442;44.570;18.610;2023-03-31T07:22:57;27.38;;;11.57;;
78183;SDS011;67442;44.570;18.610;2023-03-31T07:25:24;24.65;;;11.73;;
78183;SDS011;67442;44.570;18.610;2023-03-31T07:27:52;22.02;;;11.18;;
78183;SDS011;67442;44.570;18.610;2023-03-31T07:30:22;27.70;;;11.45;;
78183;SDS011;67442;44.570;18.610;2023-03-31T07:32:50;24.13;;;11.55;;
78183;SDS011;67442;44.570;18.610;2023-03-31T07:35:19;24.45;;;11.20;;
78183;SDS011;67442;44.570;18.610;2023-03-31T07:37:50;29.42;;;11.35;;
78183;SDS011;67442;44.570;18.610;2023-03-31T07:40:20;22.90;;;10.07;;
78183;SDS011;67442;44.570;18.610;2023-03-31T07:42:51;25.65;;;11.45;;
78183;SDS011;67442;44.570;18.610;2023-03-31T07:45:18;22.63;;;10.32;;
78183;SDS011;67442;44.570;18.610;2023-03-31T07:47:50;25.38;;;10.88;;
78183;SDS011;67442;44.570;18.610;2023-03-31T07:50:19;23.80;;;11.00;;
78183;SDS011;67442;44.570;18.610;2023-03-31T07:52:46;27.38;;;10.63;;
78183;SDS011;67442;44.570;18.610;2023-03-31T07:55:17;22.73;;;10.23;;
78183;SDS011;67442;44.570;18.610;2023-03-31T07:57:44;23.95;;;10.80;;
78183;SDS011;67442;44.570;18.610;2023-03-31T08:00:15;24.10;;;11.00;;
78183;SDS011;67442;44.570;18.610;2023-03-31T08:02:45;22.13;;;11.00;;
78183;SDS011;67442;44.570;18.610;2023-03-31T08:05:14;21.77;;;9.77;;
78183;SDS011;67442;44.570;18.610;2023-03-31T08:07:42;24.80;;;10.85;;
78183;SDS011;67442;44.570;18.610;2023-03-31T08:10:12;19.30;;;10.57;;
78183;SDS011;67442;44.570;18.610;2023-03-31T08:13:02;21.63;;;10.02;;
78183;SDS011;67442;44.570;18.610;2023-03-31T08:15:29;20.73;;;10.45;;
78183;SDS011;67442;44.570;18.610;2023-03-31T08:17:55;22.75;;;10.65;;
78183;SDS011;67442;44.570;18.610;2023-03-31T08:20:22;21.38;;;10.55;;
78183;SDS011;67442;44.570;18.610;2023-03-31T08:22:49;23.80;;;10.45;;
78183;SDS011;67442;44.570;18.610;2023-03-31T08:25:17;26.38;;;11.23;;
78183;SDS011;67442;44.570;18.610;2023-03-31T08:27:45;21.15;;;10.75;;
78183;SDS011;67442;44.570;18.610;2023-03-31T08:30:16;21.52;;;10.20;;
78183;SDS011;67442;44.570;18.610;2023-03-31T08:32:43;22.15;;;9.82;;
78183;SDS011;67442;44.570;18.610;2023-03-31T08:35:10;21.65;;;10.50;;
78183;SDS011;67442;44.570;18.610;2023-03-31T08:37:38;23.63;;;10.73;;
78183;SDS011;67442;44.570;18.610;2023-03-31T08:40:06;21.73;;;9.55;;
78183;SDS011;67442;44.570;18.610;2023-03-31T08:42:38;16.38;;;8.80;;
78183;SDS011;67442;44.570;18.610;2023-03-31T08:47:52;17.02;;;9.00;;
78183;SDS011;67442;44.570;18.610;2023-03-31T08:50:26;25.13;;;10.38;;
78183;SDS011;67442;44.570;18.610;2023-03-31T08:53:32;21.15;;;10.48;;
78183;SDS011;67442;44.570;18.610;2023-03-31T08:56:21;22.38;;;10.90;;
78183;SDS011;67442;44.570;18.610;2023-03-31T08:58:52;20.63;;;9.98;;
78183;SDS011;67442;44.570;18.610;2023-03-31T09:01:43;21.70;;;9.85;;
78183;SDS011;67442;44.570;18.610;2023-03-31T09:10:17;18.48;;;9.32;;
78183;SDS011;67442;44.570;18.610;2023-03-31T09:16:44;21.38;;;9.50;;
78183;SDS011;67442;44.570;18.610;2023-03-31T09:18:41;19.40;;;9.63;;
78183;SDS011;67442;44.570;18.610;2023-03-31T09:24:14;19.52;;;8.77;;
78183;SDS011;67442;44.570;18.610;2023-03-31T09:27:05;19.63;;;9.25;;
78183;SDS011;67442;44.570;18.610;2023-03-31T09:32:19;20.58;;;9.18;;
78183;SDS011;67442;44.570;18.610;2023-03-31T09:34:52;18.83;;;8.95;;
78183;SDS011;67442;44.570;18.610;2023-03-31T09:37:26;18.92;;;9.02;;
78183;SDS011;67442;44.570;18.610;2023-03-31T09:39:56;22.20;;;10.02;;
78183;SDS011;67442;44.570;18.610;2023-03-31T09:42:26;18.23;;;9.32;;
78183;SDS011;67442;44.570;18.610;2023-03-31T09:44:53;15.65;;;7.93;;
78183;SDS011;67442;44.570;18.610;2023-03-31T09:50:10;18.33;;;9.30;;
78183;SDS011;67442;44.570;18.610;2023-03-31T09:52:46;17.63;;;8.45;;
78183;SDS011;67442;44.570;18.610;2023-03-31T09:58:00;17.83;;;8.52;;
78183;SDS011;67442;44.570;18.610;2023-03-31T10:00:32;19.60;;;9.00;;
78183;SDS011;67442;44.570;18.610;2023-03-31T10:03:03;16.20;;;8.13;;
78183;SDS011;67442;44.570;18.610;2023-03-31T10:05:34;17.45;;;8.88;;
78183;SDS011;67442;44.570;18.610;2023-03-31T10:08:23;15.95;;;7.97;;
78183;SDS011;67442;44.570;18.610;2023-03-31T10:11:07;19.90;;;8.90;;
78183;SDS011;67442;44.570;18.610;2023-03-31T10:13:49;17.60;;;8.18;;
78183;SDS011;67442;44.570;18.610;2023-03-31T10:16:31;19.55;;;8.80;;
78183;SDS011;67442;44.570;18.610;2023-03-31T10:24:22;17.48;;;8.73;;
78183;SDS011;67442;44.570;18.610;2023-03-31T10:26:53;16.83;;;8.45;;
78183;SDS011;67442;44.570;18.610;2023-03-31T10:29:29;17.77;;;8.00;;
78183;SDS011;67442;44.570;18.610;2023-03-31T10:32:02;18.88;;;8.80;;
78183;SDS011;67442;44.570;18.610;2023-03-31T10:34:43;18.83;;;8.80;;
78183;SDS011;67442;44.570;18.610;2023-03-31T10:37:16;15.07;;;7.93;;
78183;SDS011;67442;44.570;18.610;2023-03-31T10:39:47;18.60;;;8.68;;
78183;SDS011;67442;44.570;18.610;2023-03-31T10:42:21;14.88;;;7.88;;
78183;SDS011;67442;44.570;18.610;2023-03-31T10:44:48;15.55;;;7.90;;
78183;SDS011;67442;44.570;18.610;2023-03-31T10:50:03;17.73;;;8.18;;
78183;SDS011;67442;44.570;18.610;2023-03-31T10:52:34;18.90;;;8.45;;
78183;SDS011;67442;44.570;18.610;2023-03-31T10:55:11;15.48;;;7.88;;
78183;SDS011;67442;44.570;18.610;2023-03-31T10:57:50;15.60;;;6.90;;
78183;SDS011;67442;44.570;18.610;2023-03-31T11:05:59;18.92;;;7.93;;
78183;SDS011;67442;44.570;18.610;2023-03-31T11:14:25;17.75;;;7.95;;
78183;SDS011;67442;44.570;18.610;2023-03-31T11:17:47;14.05;;;6.97;;
78183;SDS011;67442;44.570;18.610;2023-03-31T11:25:58;14.38;;;8.30;;
78183;SDS011;67442;44.570;18.610;2023-03-31T11:32:03;16.25;;;7.60;;
78183;SDS011;67442;44.570;18.610;2023-03-31T11:37:41;16.73;;;7.75;;
78183;SDS011;67442;44.570;18.610;2023-03-31T11:43:06;17.17;;;7.75;;
78183;SDS011;67442;44.570;18.610;2023-03-31T11:48:55;13.75;;;7.35;;
78183;SDS011;67442;44.570;18.610;2023-03-31T11:51:28;16.35;;;7.50;;
78183;SDS011;67442;44.570;18.610;2023-03-31T11:54:11;13.83;;;7.27;;
78183;SDS011;67442;44.570;18.610;2023-03-31T11:57:12;18.65;;;7.90;;
78183;SDS011;67442;44.570;18.610;2023-03-31T12:00:05;13.13;;;6.72;;
78183;SDS011;67442;44.570;18.610;2023-03-31T12:03:00;14.70;;;6.97;;
78183;SDS011;67442;44.570;18.610;2023-03-31T12:05:31;16.10;;;7.43;;
78183;SDS011;67442;44.570;18.610;2023-03-31T12:08:14;16.55;;;7.90;;
78183;SDS011;67442;44.570;18.610;2023-03-31T12:10:52;14.88;;;6.95;;
78183;SDS011;67442;44.570;18.610;2023-03-31T12:21:52;14.25;;;7.03;;
78183;SDS011;67442;44.570;18.610;2023-03-31T12:24:44;14.10;;;7.68;;
78183;SDS011;67442;44.570;18.610;2023-03-31T12:35:32;14.98;;;6.65;;
78183;SDS011;67442;44.570;18.610;2023-03-31T12:47:07;14.30;;;6.82;;
78183;SDS011;67442;44.570;18.610;2023-03-31T12:55:24;11.93;;;6.10;;
78183;SDS011;67442;44.570;18.610;2023-03-31T13:01:01;11.55;;;6.32;;
78183;SDS011;67442;44.570;18.610;2023-03-31T13:03:41;12.48;;;6.50;;
78183;SDS011;67442;44.570;18.610;2023-03-31T13:08:57;12.32;;;7.22;;
78183;SDS011;67442;44.570;18.610;2023-03-31T13:16:40;13.77;;;6.95;;
78183;SDS011;67442;44.570;18.610;2023-03-31T13:19:09;12.10;;;6.43;;
78183;SDS011;67442;44.570;18.610;2023-03-31T13:21:52;13.30;;;6.63;;
78183;SDS011;67442;44.570;18.610;2023-03-31T13:24:24;10.90;;;5.78;;
78183;SDS011;67442;44.570;18.610;2023-03-31T13:26:52;15.88;;;6.82;;
78183;SDS011;67442;44.570;18.610;2023-03-31T13:29:39;12.20;;;6.30;;
78183;SDS011;67442;44.570;18.610;2023-03-31T13:32:16;13.10;;;6.45;;
78183;SDS011;67442;44.570;18.610;2023-03-31T13:35:06;11.27;;;6.13;;
78183;SDS011;67442;44.570;18.610;2023-03-31T13:52:46;12.13;;;6.30;;
78183;SDS011;67442;44.570;18.610;2023-03-31T14:01:07;14.00;;;6.50;;
78183;SDS011;67442;44.570;18.610;2023-03-31T14:04:03;16.25;;;6.57;;
78183;SDS011;67442;44.570;18.610;2023-03-31T14:06:41;11.95;;;6.10;;
78183;SDS011;67442;44.570;18.610;2023-03-31T14:09:28;13.40;;;6.68;;
78183;SDS011;67442;44.570;18.610;2023-03-31T14:14:57;14.70;;;6.22;;
78183;SDS011;67442;44.570;18.610;2023-03-31T14:17:29;12.18;;;5.93;;
78183;SDS011;67442;44.570;18.610;2023-03-31T14:30:52;9.07;;;5.18;;
78183;SDS011;67442;44.570;18.610;2023-03-31T14:38:50;9.93;;;4.82;;
78183;SDS011;67442;44.570;18.610;2023-03-31T14:41:22;9.00;;;4.80;;
78183;SDS011;67442;44.570;18.610;2023-03-31T14:43:54;10.15;;;5.18;;
78183;SDS011;67442;44.570;18.610;2023-03-31T14:46:25;9.75;;;4.50;;
78183;SDS011;67442;44.570;18.610;2023-03-31T14:48:56;8.57;;;4.65;;
78183;SDS011;67442;44.570;18.610;2023-03-31T14:51:29;9.32;;;4.90;;
78183;SDS011;67442;44.570;18.610;2023-03-31T14:53:57;9.18;;;4.80;;
78183;SDS011;67442;44.570;18.610;2023-03-31T14:56:29;7.47;;;4.43;;
78183;SDS011;67442;44.570;18.610;2023-03-31T14:59:04;9.25;;;4.68;;
78183;SDS011;67442;44.570;18.610;2023-03-31T15:01:33;9.48;;;4.70;;
78183;SDS011;67442;44.570;18.610;2023-03-31T15:04:06;10.30;;;4.57;;
78183;SDS011;67442;44.570;18.610;2023-03-31T15:06:45;7.80;;;4.25;;
78183;SDS011;67442;44.570;18.610;2023-03-31T15:09:17;8.93;;;4.47;;
78183;SDS011;67442;44.570;18.610;2023-03-31T15:11:46;9.65;;;4.72;;
78183;SDS011;67442;44.570;18.610;2023-03-31T15:14:17;9.88;;;4.63;;
78183;SDS011;67442;44.570;18.610;2023-03-31T15:16:45;8.73;;;4.53;;
78183;SDS011;67442;44.570;18.610;2023-03-31T15:19:18;9.00;;;4.45;;
78183;SDS011;67442;44.570;18.610;2023-03-31T15:21:56;9.38;;;4.55;;
78183;SDS011;67442;44.570;18.610;2023-03-31T15:24:43;7.70;;;4.28;;
78183;SDS011;67442;44.570;18.610;2023-03-31T15:29:50;10.90;;;4.68;;
78183;SDS011;67442;44.570;18.610;2023-03-31T15:32:39;8.60;;;4.68;;
78183;SDS011;67442;44.570;18.610;2023-03-31T15:35:06;7.15;;;3.97;;
78183;SDS011;67442;44.570;18.610;2023-03-31T15:37:49;8.60;;;4.15;;
78183;SDS011;67442;44.570;18.610;2023-03-31T15:40:22;10.95;;;4.20;;
78183;SDS011;67442;44.570;18.610;2023-03-31T15:42:52;7.32;;;4.13;;
78183;SDS011;67442;44.570;18.610;2023-03-31T15:48:01;7.47;;;3.90;;
78183;SDS011;67442;44.570;18.610;2023-03-31T15:50:32;7.32;;;3.92;;
78183;SDS011;67442;44.570;18.610;2023-03-31T15:52:59;7.95;;;4.10;;
78183;SDS011;67442;44.570;18.610;2023-03-31T15:55:29;8.07;;;4.10;;
78183;SDS011;67442;44.570;18.610;2023-03-31T15:58:04;9.73;;;4.07;;
78183;SDS011;67442;44.570;18.610;2023-03-31T16:03:24;7.78;;;3.60;;
78183;SDS011;67442;44.570;18.610;2023-03-31T16:06:09;8.88;;;3.75;;
78183;SDS011;67442;44.570;18.610;2023-03-31T16:08:50;7.07;;;3.78;;
78183;SDS011;67442;44.570;18.610;2023-03-31T16:11:26;6.53;;;3.75;;
78183;SDS011;67442;44.570;18.610;2023-03-31T16:14:01;6.40;;;3.60;;
78183;SDS011;67442;44.570;18.610;2023-03-31T16:17:19;8.05;;;3.75;;
78183;SDS011;67442;44.570;18.610;2023-03-31T16:20:22;7.82;;;3.70;;
78183;SDS011;67442;44.570;18.610;2023-03-31T16:23:09;7.70;;;3.80;;
78183;SDS011;67442;44.570;18.610;2023-03-31T16:25:42;12.52;;;3.80;;
78183;SDS011;67442;44.570;18.610;2023-03-31T16:28:15;8.02;;;3.53;;
78183;SDS011;67442;44.570;18.610;2023-03-31T16:30:48;6.47;;;3.88;;
78183;SDS011;67442;44.570;18.610;2023-03-31T16:33:20;8.65;;;4.20;;
78183;SDS011;67442;44.570;18.610;2023-03-31T16:35:49;10.45;;;5.18;;
78183;SDS011;67442;44.570;18.610;2023-03-31T16:38:18;12.98;;;5.55;;
78183;SDS011;67442;44.570;18.610;2023-03-31T16:40:50;12.57;;;4.60;;
78183;SDS011;67442;44.570;18.610;2023-03-31T16:43:20;14.82;;;5.68;;
78183;SDS011;67442;44.570;18.610;2023-03-31T16:45:55;15.32;;;5.95;;
78183;SDS011;67442;44.570;18.610;2023-03-31T16:48:24;18.15;;;6.80;;
78183;SDS011;67442;44.570;18.610;2023-03-31T16:50:56;15.90;;;5.93;;
78183;SDS011;67442;44.570;18.610;2023-03-31T16:53:29;14.95;;;5.63;;
78183;SDS011;67442;44.570;18.610;2023-03-31T16:55:58;13.82;;;5.55;;
78183;SDS011;67442;44.570;18.610;2023-03-31T16:58:29;14.93;;;5.78;;
78183;SDS011;67442;44.570;18.610;2023-03-31T17:00:56;13.27;;;6.07;;
78183;SDS011;67442;44.570;18.610;2023-03-31T17:03:27;12.50;;;5.50;;
78183;SDS011;67442;44.570;18.610;2023-03-31T17:05:55;12.38;;;5.32;;
78183;SDS011;67442;44.570;18.610;2023-03-31T17:08:24;11.57;;;5.47;;
78183;SDS011;67442;44.570;18.610;2023-03-31T17:10:58;11.80;;;5.40;;
78183;SDS011;67442;44.570;18.610;2023-03-31T17:13:27;12.35;;;5.55;;
78183;SDS011;67442;44.570;18.610;2023-03-31T17:15:55;9.18;;;4.85;;
78183;SDS011;67442;44.570;18.610;2023-03-31T17:18:24;11.05;;;5.82;;
78183;SDS011;67442;44.570;18.610;2023-03-31T17:21:01;10.25;;;5.55;;
78183;SDS011;67442;44.570;18.610;2023-03-31T17:23:29;12.18;;;5.47;;
78183;SDS011;67442;44.570;18.610;2023-03-31T17:25:56;9.88;;;5.50;;
78183;SDS011;67442;44.570;18.610;2023-03-31T17:28:23;9.20;;;5.03;;
78183;SDS011;67442;44.570;18.610;2023-03-31T17:30:55;11.20;;;5.35;;
78183;SDS011;67442;44.570;18.610;2023-03-31T17:33:23;10.88;;;5.53;;
78183;SDS011;67442;44.570;18.610;2023-03-31T17:35:55;11.15;;;5.07;;
78183;SDS011;67442;44.570;18.610;2023-03-31T17:38:25;9.60;;;5.30;;
78183;SDS011;67442;44.570;18.610;2023-03-31T17:40:53;11.15;;;5.05;;
78183;SDS011;67442;44.570;18.610;2023-03-31T17:43:20;8.38;;;4.60;;
78183;SDS011;67442;44.570;18.610;2023-03-31T17:45:48;9.35;;;4.65;;
78183;SDS011;67442;44.570;18.610;2023-03-31T17:48:15;8.07;;;4.15;;
78183;SDS011;67442;44.570;18.610;2023-03-31T17:50:42;11.30;;;5.38;;
78183;SDS011;67442;44.570;18.610;2023-03-31T17:53:10;8.50;;;4.70;;
78183;SDS011;67442;44.570;18.610;2023-03-31T17:55:38;9.57;;;4.85;;
78183;SDS011;67442;44.570;18.610;2023-03-31T17:58:05;10.05;;;5.10;;
78183;SDS011;67442;44.570;18.610;2023-03-31T18:00:33;8.98;;;5.15;;
78183;SDS011;67442;44.570;18.610;2023-03-31T18:03:00;11.80;;;4.88;;
78183;SDS011;67442;44.570;18.610;2023-03-31T18:05:28;9.90;;;4.63;;
78183;SDS011;67442;44.570;18.610;2023-03-31T18:08:01;13.05;;;4.65;;
78183;SDS011;67442;44.570;18.610;2023-03-31T18:10:33;8.50;;;4.28;;
78183;SDS011;67442;44.570;18.610;2023-03-31T18:13:00;9.80;;;5.00;;